Good Hart, MI (49737)

1:56 AM EST on March 01, 2015 (GMT -0500)
Boyne Highlands Resort | Change Station
CLOSE
Current Station
Personal Weather Station
Location: Harbor Springs, MI
Elevation: 787 ft
Nearby Weather Stations

Elev 787 ft 45.47 °N, 84.94 °W | Updated 5 seconds ago

Clear
Clear
8.2 °F
Feels Like 8 °F
N
0.0
Wind Variable Wind from ESE
Gusts 4.0 mph

Today
High -- | Low -- °F
--% Chance of Precip.
Yesterday
High -- | Low -- °F
Precip. -- in
7:19 AM 6:26 PM
Waxing Gibbous, 83% visible
Pressure 30.41 in
Visibility 10.0 miles
Clouds Clear
Windchill 8 °F
Dew Point 4 °F
Humidity 84%
Rainfall 0.00 in
Snow Depth Not available.
UV 0 out of 12
Pollen .30 out of 12
Air Quality Not available.
Flu Activity Not available.
METAR KMGN 010634Z AUTO 00000KT 10SM CLR M16/M18 A3041 RMK AO2 T11661186

More Conditions Fewer Conditions

Pressure 30.41 in
Visibility 10.0 miles
Clouds Clear
Windchill 8 °F
Dew Point 4 °F
Humidity 84%
Rainfall 0.00 in
Snow Depth Not available.
UV 0 out of 12
Pollen .30 out of 12
Air Quality Not available.
Flu Activity Not available.
METAR KMGN 010634Z AUTO 00000KT 10SM CLR M16/M18 A3041 RMK AO2 T11661186

More Conditions Fewer Conditions

Nowcast | as of 1:00 am EST on March 1, 2015

At 2 am...mostly cloudy. Temperature 9 above. South winds 6 mph. At 4 am...mostly cloudy. Chance of flurries. Temperature 13. Southwest winds 6 mph. At 6 am...mostly cloudy. Chance of flurries. Temperature 13. Southwest winds 7 mph. At 8 am...cloudy. Chance of snow showers. Temperature 12. Southwest winds 8 mph.

×

10-Day Weather Forecast

Almanac

Astronomy

Mar. 01, 2015 Rise Set
Actual Time
Civil Twilight
Nautical Twilight
Astronomical Twilight
Moon
Length of Visible Light
Length of Day
Tomorrow will be .
, % of the Moon is Illuminated

Today's Extremes

State Highs State Lows

Community

WunderPhotos

Upload Photos

1,801,345 photos uploaded!

WunderBlogs® & News

Nearby

Air Quality

  Air Quality AQ Index Pollutant
Not available.

Snow Depth

Station Depth Elevation

Earthquake Activity

City Distance Mag. Time & Date
Minimum magnitude displayed is 2.5.

Coastal Water Temperatures

Place Temperature

Nearby Weather Stations